Sunset Harbor, North Carolina
Current Conditions -  °F | °C
As of 1:55 PM on Tuesday 27 Jan 2015 (Local Time) from KSUT Reporting Station
Broken Clouds Broken Clouds  
Wind Chill: 37°   Ceiling: 3700
Heat Index: 42°   Visibility: 10mi
Dew Point: 30°   Wind: 10mph
Humidity: 61%   Direction: 330°NNW
Pressure: 29.8"   Gusts: NA
Location:  34.0134°N, 78.1689°W
Report Text: KSUT 271855Z AUTO 33009KT 10SM SCT029 BKN037 BKN045 06/M01 A2980 RMK AO2 T00581011
Loading
Personal Weather Stations






























Interactive Weather Map New forecast layout! Learn more

10-Day Weather Forecast

Advertisements
Track Severe Weather on mobile